Time;durP1;ratioP1;P1;durP2;ratioP2;P2;SDS_P1;SDS_P2;PMS_P1;PMS_P2;Temp;Humidity;BMP_temperature;BMP_pressure;BME280_temperature;BME280_humidity;BME280_pressure;Samples;Min_cycle;Max_cycle;Signal;HPM_P1;HPM_P2
2021/03/11 00:01:25;;;;;;;62.20;22.85;;;;;;;-2.71;55.08;101265.65;1718219;83;21386;-62
2021/03/11 00:03:53;;;;;;;174.93;51.20;;;;;;;-2.72;54.96;101267.95;1718225;83;21425;-62
2021/03/11 00:06:20;;;;;;;449.10;130.65;;;;;;;-2.73;54.98;101276.95;1718292;82;21406;-62
2021/03/11 00:08:48;;;;;;;507.08;146.95;;;;;;;-2.78;55.11;101274.54;1718287;83;21172;-63
2021/03/11 00:11:15;;;;;;;556.85;158.68;;;;;;;-2.83;55.17;101283.81;1718199;83;21891;-62
2021/03/11 00:13:43;;;;;;;645.33;181.65;;;;;;;-2.89;55.21;101284.56;1718211;82;21076;-64
2021/03/11 00:16:11;;;;;;;670.57;217.62;;;;;;;-2.89;55.34;101283.22;1718266;83;21754;-62
2021/03/11 00:18:38;;;;;;;460.02;131.10;;;;;;;-2.80;55.38;101273.77;1718210;83;21911;-60
2021/03/11 00:21:06;;;;;;;309.92;102.27;;;;;;;-2.77;55.25;101269.56;1718190;83;21809;-62
2021/03/11 00:23:34;;;;;;;157.85;54.42;;;;;;;-2.77;55.25;101269.56;1718346;83;21326;-61
2021/03/11 00:26:02;;;;;;;84.22;28.32;;;;;;;-2.74;55.37;101274.74;1718143;83;21308;-63
2021/03/11 00:28:29;;;;;;;55.38;21.62;;;;;;;-2.72;55.37;101267.95;1718539;83;21199;-63
2021/03/11 00:30:57;;;;;;;52.00;20.88;;;;;;;-2.72;55.35;101262.58;1718601;83;21055;-63
2021/03/11 00:33:24;;;;;;;39.00;15.38;;;;;;;-2.73;55.40;101260.86;1718471;83;21043;-63
2021/03/11 00:35:52;;;;;;;39.98;15.00;;;;;;;-2.82;55.49;101268.11;1718480;83;21354;-62
2021/03/11 00:38:19;;;;;;;43.92;17.27;;;;;;;-2.82;55.49;101268.11;1718502;83;21327;-62
2021/03/11 00:40:47;;;;;;;46.25;17.37;;;;;;;-2.93;55.92;101264.72;1718476;83;21878;-63
2021/03/11 00:43:14;;;;;;;51.77;19.37;;;;;;;-2.93;55.92;101264.72;1718523;83;21810;-62
2021/03/11 00:45:47;;;;;;;54.20;19.57;;;;;;;-2.94;55.96;101265.20;1718576;83;21013;-62
2021/03/11 00:48:12;;;;;;;46.65;17.70;;;;;;;-2.97;56.24;101262.70;1718298;83;21068;-63
2021/03/11 00:50:41;;;;;;;46.68;18.20;;;;;;;-3.03;56.42;101259.03;1718709;83;21076;-62
2021/03/11 00:53:09;;;;;;;47.25;17.52;;;;;;;-3.03;56.42;101259.03;1718452;83;21835;-61
2021/03/11 00:55:37;;;;;;;41.88;15.65;;;;;;;-3.07;56.47;101256.15;1718462;83;21040;-62
2021/03/11 00:58:05;;;;;;;37.73;14.73;;;;;;;-3.06;56.71;101260.55;1718452;83;21337;-62
2021/03/11 01:00:32;;;;;;;42.58;17.10;;;;;;;-3.08;56.80;101246.38;1718493;83;21816;-62
2021/03/11 01:03:05;;;;;;;47.93;17.35;;;;;;;-3.05;56.80;101248.02;1717297;83;21840;-63
2021/03/11 01:05:35;;;;;;;45.28;16.73;;;;;;;-3.05;56.88;101249.36;1717605;83;21093;-62
2021/03/11 01:08:05;;;;;;;43.87;17.92;;;;;;;-3.06;56.88;101236.44;1717751;83;21068;-63
2021/03/11 01:10:35;;;;;;;42.48;17.17;;;;;;;-3.07;56.98;101236.52;1718532;83;21422;-62
2021/03/11 01:13:03;;;;;;;39.30;16.35;;;;;;;-3.04;56.97;101243.91;1718428;83;21359;-62
2021/03/11 01:15:35;;;;;;;37.13;14.80;;;;;;;-3.05;56.98;101239.50;1718580;83;21249;-62
2021/03/11 01:18:06;;;;;;;44.53;15.18;;;;;;;-3.06;57.24;101236.44;1718390;83;21429;-62
2021/03/11 01:20:34;;;;;;;39.35;14.05;;;;;;;-3.06;57.24;101236.44;1718079;83;21251;-62
2021/03/11 01:23:01;;;;;;;38.40;14.75;;;;;;;-3.04;57.10;101237.20;1718388;83;21335;-63
2021/03/11 01:25:29;;;;;;;43.87;15.50;;;;;;;-3.07;57.04;101236.05;1718542;83;21091;-61
2021/03/11 01:27:56;;;;;;;40.30;15.48;;;;;;;-3.13;57.10;101232.39;1718404;83;21428;-62
2021/03/11 01:30:24;;;;;;;35.63;14.13;;;;;;;-3.17;57.29;101233.52;1718509;83;21072;-61
2021/03/11 01:32:52;;;;;;;43.05;15.10;;;;;;;-3.19;57.35;101230.06;1718578;83;21267;-62
2021/03/11 01:35:20;;;;;;;45.73;16.48;;;;;;;-3.22;57.39;101232.92;1718431;83;21784;-62
2021/03/11 01:37:47;;;;;;;43.15;15.80;;;;;;;-3.25;57.42;101221.91;1718429;83;21072;-61
2021/03/11 01:40:15;;;;;;;39.20;13.43;;;;;;;-3.21;57.67;101227.95;1718477;83;21927;-62
2021/03/11 01:42:43;;;;;;;37.10;14.40;;;;;;;-3.20;57.48;101229.20;1718583;83;21185;-62
2021/03/11 01:45:11;;;;;;;37.98;14.05;;;;;;;-3.20;57.51;101232.36;1718403;83;21107;-62
2021/03/11 01:47:38;;;;;;;41.25;13.32;;;;;;;-3.23;57.40;101240.10;1718436;83;21056;-62
2021/03/11 01:50:07;;;;;;;32.93;13.65;;;;;;;-3.29;57.59;101240.42;1718537;83;21316;-62
2021/03/11 01:52:35;;;;;;;35.17;13.80;;;;;;;-3.26;57.62;101235.36;1718414;83;21090;-61
2021/03/11 01:55:04;;;;;;;35.33;14.05;;;;;;;-3.23;57.59;101246.80;1718461;83;21640;-62
2021/03/11 01:57:31;;;;;;;40.92;16.20;;;;;;;-3.24;57.54;101246.89;1718528;83;21322;-63
2021/03/11 01:59:58;;;;;;;35.48;13.53;;;;;;;-3.28;57.56;101243.97;1718500;83;21872;-62
2021/03/11 02:02:26;;;;;;;42.95;15.00;;;;;;;-3.31;57.60;101246.83;1718533;83;21193;-62
2021/03/11 02:04:53;;;;;;;39.65;15.28;;;;;;;-3.35;57.73;101254.17;1718460;83;21313;-61
2021/03/11 02:07:23;;;;;;;38.20;14.63;;;;;;;-3.39;57.79;101246.41;1718529;83;21080;-61
2021/03/11 02:09:50;;;;;;;43.60;15.68;;;;;;;-3.42;58.03;101248.78;1718519;83;21352;-65
2021/03/11 02:12:48;;;;;;;45.60;18.17;;;;;;;-3.42;58.03;101248.78;1718416;83;21327;-61
2021/03/11 02:15:24;;;;;;;42.03;17.20;;;;;;;-3.41;58.12;101255.00;1718633;83;21174;-61
2021/03/11 02:18:16;;;;;;;41.80;15.88;;;;;;;-3.39;58.14;101255.78;1718538;83;21123;-62
2021/03/11 02:21:07;;;;;;;41.80;15.43;;;;;;;-3.37;58.17;101247.17;1673390;83;21087;-64
2021/03/11 02:24:07;;;;;;;46.13;16.25;;;;;;;-3.36;58.08;101248.43;1691647;84;21061;-62
2021/03/11 02:27:09;;;;;;;45.08;15.98;;;;;;;-3.34;58.11;101256.38;1691250;84;21085;-61
2021/03/11 02:29:39;;;;;;;50.90;16.80;;;;;;;-3.34;58.11;101256.38;1691674;84;21038;-63
2021/03/11 02:32:11;;;;;;;52.23;17.90;;;;;;;-3.33;58.26;101258.11;1691616;84;21026;-61
2021/03/11 02:34:48;;;;;;;53.42;18.57;;;;;;;-3.33;58.26;101258.11;1710271;83;21171;-61
2021/03/11 02:37:27;;;;;;;50.50;18.35;;;;;;;-3.31;58.12;101261.56;1710854;84;21318;-62
2021/03/11 02:40:15;;;;;;;49.35;16.35;;;;;;;-3.36;58.18;101261.83;1710703;84;21255;-62
2021/03/11 02:42:42;;;;;;;49.85;16.70;;;;;;;-3.40;58.31;101263.42;1710851;84;21072;-62
2021/03/11 02:45:14;;;;;;;55.40;19.70;;;;;;;-3.43;58.41;101267.63;1710780;83;21303;-62
2021/03/11 02:47:42;;;;;;;55.50;19.17;;;;;;;-3.48;58.61;101269.70;1710780;83;21067;-61
2021/03/11 02:50:10;;;;;;;59.75;18.55;;;;;;;-3.51;58.77;101268.92;1710756;83;21040;-61
2021/03/11 02:52:37;;;;;;;59.93;20.40;;;;;;;-3.54;58.79;101267.75;1710658;83;21080;-62
2021/03/11 02:55:07;;;;;;;60.12;18.30;;;;;;;-3.57;58.88;101263.91;1686702;84;21129;-62
2021/03/11 02:57:36;;;;;;;51.25;17.65;;;;;;;-3.56;58.99;101262.96;1710847;83;21407;-62
2021/03/11 03:00:07;;;;;;;55.67;20.43;;;;;;;-3.56;58.99;101262.96;1710930;83;21338;-62
2021/03/11 03:02:34;;;;;;;45.12;16.65;;;;;;;-3.56;59.03;101265.64;1710944;84;21906;-62
2021/03/11 03:05:03;;;;;;;49.30;17.25;;;;;;;-3.56;59.08;101266.11;1710850;83;21190;-62
2021/03/11 03:07:31;;;;;;;48.23;17.62;;;;;;;-3.57;59.17;101267.92;1710915;83;21064;-62
2021/03/11 03:09:58;;;;;;;56.60;16.57;;;;;;;-3.58;59.24;101264.00;1710955;83;21816;-61
2021/03/11 03:12:26;;;;;;;42.23;15.95;;;;;;;-3.58;59.25;101264.86;1710923;84;21328;-63
2021/03/11 03:14:53;;;;;;;41.45;16.75;;;;;;;-3.60;59.26;101262.75;1710888;83;21381;-61
2021/03/11 03:17:21;;;;;;;39.73;14.68;;;;;;;-3.64;59.12;101255.83;1710776;84;21099;-62
2021/03/11 03:19:49;;;;;;;40.28;14.95;;;;;;;-3.63;59.20;101260.23;1710787;83;21755;-62
2021/03/11 03:22:18;;;;;;;44.42;16.62;;;;;;;-3.63;59.20;101260.23;1710856;84;21303;-63
2021/03/11 03:24:45;;;;;;;43.25;16.30;;;;;;;-3.63;59.38;101257.56;1710927;83;21664;-61
2021/03/11 03:27:14;;;;;;;42.90;15.20;;;;;;;-3.60;59.02;101257.86;1710671;83;21104;-63
2021/03/11 03:29:42;;;;;;;47.05;17.07;;;;;;;-3.60;59.02;101257.86;1710885;83;21044;-62
2021/03/11 03:32:09;;;;;;;43.00;15.75;;;;;;;-3.64;59.04;101257.64;1710801;84;21071;-63
2021/03/11 03:34:38;;;;;;;45.58;15.78;;;;;;;-3.70;59.04;101257.52;1710783;83;21909;-62
2021/03/11 03:37:06;;;;;;;41.65;16.50;;;;;;;-3.70;59.23;101259.33;1710777;83;21032;-62
2021/03/11 03:39:34;;;;;;;39.15;14.87;;;;;;;-3.61;59.17;101262.83;1710753;84;21314;-62
2021/03/11 03:42:01;;;;;;;44.95;19.37;;;;;;;-3.61;59.17;101262.83;1710766;84;21119;-62
2021/03/11 03:44:33;;;;;;;54.38;22.48;;;;;;;-3.63;59.09;101262.05;1710788;83;21312;-62
2021/03/11 03:47:01;;;;;;;71.55;30.90;;;;;;;-3.61;59.12;101262.83;1686461;84;21080;-62
2021/03/11 03:49:28;;;;;;;52.83;21.55;;;;;;;-3.56;59.05;101265.64;1710753;83;21319;-61
2021/03/11 03:51:56;;;;;;;44.95;18.48;;;;;;;-3.57;58.98;101262.58;1710914;83;21801;-64
2021/03/11 03:54:29;;;;;;;39.85;16.25;;;;;;;-3.54;58.91;101265.08;1710788;83;21433;-63
2021/03/11 03:57:06;;;;;;;37.50;14.95;;;;;;;-3.49;58.99;101271.98;1710816;83;21326;-63
2021/03/11 03:59:37;;;;;;;43.95;17.05;;;;;;;-3.45;58.76;101274.41;1710841;83;21111;-62
2021/03/11 04:02:05;;;;;;;36.70;14.75;;;;;;;-3.46;58.62;101262.44;1710830;84;21036;-63
2021/03/11 04:04:42;;;;;;;38.90;15.25;;;;;;;-3.47;58.69;101258.89;1710836;84;21306;-61
2021/03/11 04:07:12;;;;;;;37.55;15.70;;;;;;;-3.46;58.58;101267.32;1710904;84;21371;-62
2021/03/11 04:09:40;;;;;;;39.25;14.58;;;;;;;-3.51;58.63;101264.04;1685324;84;21267;-61
2021/03/11 04:12:09;;;;;;;37.70;14.53;;;;;;;-3.55;58.71;101274.06;1710850;83;21067;-62
2021/03/11 04:14:38;;;;;;;39.30;14.23;;;;;;;-3.67;58.83;101283.26;1687033;84;21222;-62
2021/03/11 04:17:05;;;;;;;36.90;14.45;;;;;;;-3.67;58.83;101283.26;1710721;83;21855;-63
2021/03/11 04:19:36;;;;;;;35.15;13.70;;;;;;;-3.74;59.09;101277.86;1710675;83;21333;-61
2021/03/11 04:22:04;;;;;;;33.20;15.23;;;;;;;-3.70;59.09;101280.75;1710961;83;21294;-61
2021/03/11 04:24:35;;;;;;;34.75;14.68;;;;;;;-3.70;59.09;101280.75;1686464;84;21190;-62
2021/03/11 04:27:05;;;;;;;38.10;15.70;;;;;;;-3.71;59.17;101285.72;1710765;84;21068;-62
2021/03/11 04:29:34;;;;;;;41.53;15.45;;;;;;;-3.74;59.28;101276.05;1710735;83;21088;-61
2021/03/11 04:32:02;;;;;;;39.23;17.48;;;;;;;-3.72;59.39;101282.66;1710703;83;21323;-63
2021/03/11 04:34:30;;;;;;;33.05;13.78;;;;;;;-3.75;59.44;101275.66;1710829;84;21320;-62
2021/03/11 04:36:58;;;;;;;42.23;16.65;;;;;;;-3.82;59.60;101274.73;1686493;84;21058;-61
2021/03/11 04:39:25;;;;;;;37.98;15.83;;;;;;;-3.82;59.60;101274.73;1710761;84;21811;-61
2021/03/11 04:41:53;;;;;;;39.67;18.23;;;;;;;-3.84;59.84;101283.72;1710813;84;21074;-62
2021/03/11 04:44:24;;;;;;;39.92;16.05;;;;;;;-3.84;59.99;101279.70;1710850;84;21838;-62
2021/03/11 04:46:51;;;;;;;44.00;18.57;;;;;;;-3.76;60.08;101279.28;1710488;84;21350;-62
2021/03/11 04:49:19;;;;;;;41.95;16.23;;;;;;;-3.68;60.04;101277.52;1710755;83;21678;-62
2021/03/11 04:51:46;;;;;;;38.67;15.00;;;;;;;-3.65;60.03;101288.05;1710751;83;21350;-61
2021/03/11 04:54:14;;;;;;;37.13;15.05;;;;;;;-3.60;60.03;101279.29;1710798;84;21315;-62
2021/03/11 04:56:43;;;;;;;34.90;14.03;;;;;;;-3.50;59.82;101284.52;1708826;84;21072;-62
2021/03/11 04:59:10;;;;;;;34.78;15.05;;;;;;;-3.45;59.84;101285.13;1710756;84;21332;-63
2021/03/11 05:01:43;;;;;;;39.73;15.95;;;;;;;-3.43;59.82;101293.94;1710747;84;21286;-63
2021/03/11 05:04:11;;;;;;;39.75;15.40;;;;;;;-3.43;59.82;101293.94;1710744;83;21862;-61
2021/03/11 05:06:38;;;;;;;40.00;17.32;;;;;;;-3.43;59.72;101295.75;1710741;83;21723;-62
2021/03/11 05:09:06;;;;;;;39.60;17.70;;;;;;;-3.46;59.72;101294.11;1710777;83;21778;-62
2021/03/11 05:11:33;;;;;;;42.00;16.60;;;;;;;-3.45;59.80;101293.16;1710747;83;21255;-62
2021/03/11 05:14:00;;;;;;;51.28;20.27;;;;;;;-3.43;59.84;101290.39;1710678;84;21331;-63
2021/03/11 05:16:28;;;;;;;49.40;20.52;;;;;;;-3.39;59.92;101292.81;1710899;83;21080;-62
2021/03/11 05:18:56;;;;;;;43.48;17.77;;;;;;;-3.32;59.87;101290.65;1710893;83;21369;-61
2021/03/11 05:21:24;;;;;;;45.00;19.37;;;;;;;-3.27;59.80;101287.23;1710776;83;21275;-63
2021/03/11 05:23:54;;;;;;;46.37;19.15;;;;;;;-3.12;59.36;101297.10;1709984;83;21341;-63
2021/03/11 05:26:21;;;;;;;46.20;17.15;;;;;;;-3.12;59.36;101297.10;1710677;83;21342;-63
2021/03/11 05:28:49;;;;;;;44.77;17.37;;;;;;;-3.13;59.40;101291.35;1709456;83;21303;-62
2021/03/11 05:31:16;;;;;;;41.05;17.40;;;;;;;-3.10;59.46;101297.02;1707732;84;21089;-61
2021/03/11 05:33:44;;;;;;;35.58;12.98;;;;;;;-2.98;59.17;101305.20;1707696;83;21228;-62
2021/03/11 05:36:11;;;;;;;30.17;11.30;;;;;;;-2.91;58.96;101307.92;1707683;84;21124;-62
2021/03/11 05:38:41;;;;;;;25.10;10.28;;;;;;;-2.91;58.96;101307.92;1707607;84;21275;-64
2021/03/11 05:41:09;;;;;;;22.70;9.03;;;;;;;-2.79;58.20;101306.33;1680732;84;21428;-63
2021/03/11 05:43:38;;;;;;;20.45;7.35;;;;;;;-2.79;58.20;101306.33;1707613;84;21844;-63
2021/03/11 05:46:06;;;;;;;17.50;8.03;;;;;;;-2.73;57.73;101309.13;1707771;83;21214;-63
2021/03/11 05:48:34;;;;;;;17.40;7.85;;;;;;;-2.72;57.42;101309.52;1681983;84;21820;-63
2021/03/11 05:51:02;;;;;;;22.22;7.87;;;;;;;-2.68;57.01;101307.04;1708043;83;21329;-62
2021/03/11 05:53:31;;;;;;;26.30;8.18;;;;;;;-2.68;57.01;101307.04;1707990;83;21413;-64
2021/03/11 05:55:58;;;;;;;16.45;7.55;;;;;;;-2.61;56.87;101315.11;1682004;83;21076;-63
2021/03/11 05:58:26;;;;;;;19.25;8.23;;;;;;;-2.57;56.22;101309.98;1707898;84;21320;-62
2021/03/11 06:00:53;;;;;;;23.47;8.93;;;;;;;-2.57;56.22;101309.98;1707967;84;21155;-62
2021/03/11 06:03:22;;;;;;;31.80;10.50;;;;;;;-2.56;56.15;101309.03;1707985;83;21683;-63
2021/03/11 06:05:51;;;;;;;24.50;10.68;;;;;;;-2.55;56.12;101305.39;1707975;83;21064;-64
2021/03/11 06:08:21;;;;;;;24.20;10.90;;;;;;;-2.51;56.20;101316.80;1707957;83;21419;-61
2021/03/11 06:10:56;;;;;;;31.82;10.43;;;;;;;-2.47;56.26;101315.66;1682686;83;21049;-62
2021/03/11 06:13:24;;;;;;;24.07;8.53;;;;;;;-2.40;56.18;101320.56;1707992;84;21215;-62
2021/03/11 06:16:03;;;;;;;25.08;9.25;;;;;;;-2.31;55.69;101317.80;1707982;83;21765;-63
2021/03/11 06:18:33;;;;;;;25.82;9.38;;;;;;;-2.29;55.29;101324.80;1707802;83;21111;-61
2021/03/11 06:21:01;;;;;;;36.73;9.03;;;;;;;-2.26;54.92;101323.76;1707877;84;21321;-64
2021/03/11 06:23:29;;;;;;;36.90;9.58;;;;;;;-2.24;54.44;101324.05;1708130;83;21096;-63
2021/03/11 06:25:58;;;;;;;24.72;9.53;;;;;;;-2.22;54.06;101327.11;1708196;83;21332;-63
2021/03/11 06:28:48;;;;;;;28.50;9.20;;;;;;;-2.18;53.70;101328.18;1708058;83;21072;-63
2021/03/11 06:31:23;;;;;;;26.10;9.30;;;;;;;-2.16;53.55;101332.98;1708570;84;21263;-61
2021/03/11 06:33:53;;;;;;;28.62;8.65;;;;;;;-2.14;53.40;101339.11;1708557;83;21151;-61
2021/03/11 06:36:22;;;;;;;19.27;8.00;;;;;;;-2.07;53.05;101343.63;1708576;84;21048;-61
2021/03/11 06:38:50;;;;;;;22.98;7.95;;;;;;;-2.02;52.69;101341.05;1708492;83;21839;-62
2021/03/11 06:41:18;;;;;;;17.67;7.35;;;;;;;-1.97;52.37;101338.08;1708573;83;21103;-64
2021/03/11 06:43:56;;;;;;;22.52;8.48;;;;;;;-1.95;52.09;101342.43;1708870;84;21338;-63
2021/03/11 06:46:26;;;;;;;23.18;8.80;;;;;;;-1.87;51.91;101337.92;1708598;83;21461;-62
2021/03/11 06:49:10;;;;;;;25.25;8.68;;;;;;;-1.77;51.70;101340.42;1708810;84;21883;-62
2021/03/11 06:51:38;;;;;;;23.22;8.25;;;;;;;-1.70;51.49;101340.42;1708633;83;21100;-63
2021/03/11 06:54:08;;;;;;;27.52;8.60;;;;;;;-1.61;51.21;101344.35;1708629;84;21195;-64
2021/03/11 06:56:41;;;;;;;28.87;9.80;;;;;;;-1.55;50.93;101346.66;1708365;83;21351;-63
2021/03/11 06:59:09;;;;;;;29.50;9.65;;;;;;;-1.46;50.69;101351.92;1708479;83;21383;-63
2021/03/11 07:01:52;;;;;;;25.23;9.15;;;;;;;-1.40;50.48;101348.84;1708495;84;21163;-63
2021/03/11 07:04:23;;;;;;;24.70;10.65;;;;;;;-1.32;50.26;101345.19;1708642;84;21319;-64
2021/03/11 07:06:51;;;;;;;25.62;9.15;;;;;;;-1.26;50.06;101342.13;1708701;83;21429;-64
2021/03/11 07:09:19;;;;;;;36.98;14.18;;;;;;;-1.19;49.79;101350.19;1708583;83;21787;-64
2021/03/11 07:11:54;;;;;;;32.55;12.37;;;;;;;-1.16;49.69;101340.58;1702226;84;21066;-63
2021/03/11 07:14:28;;;;;;;32.48;11.38;;;;;;;-1.11;49.59;101344.31;1689085;84;21487;-64
2021/03/11 07:17:17;;;;;;;24.65;8.98;;;;;;;-1.00;49.32;101346.68;1689654;84;21764;-62
2021/03/11 07:20:12;;;;;;;26.33;9.73;;;;;;;-0.93;49.10;101348.97;1668817;85;21212;-62
2021/03/11 07:22:41;;;;;;;25.27;9.48;;;;;;;-0.94;48.92;101350.80;1692383;83;21026;-63
2021/03/11 07:25:29;;;;;;;18.57;7.03;;;;;;;-0.88;48.68;101352.22;1699161;83;21321;-62
2021/03/11 07:27:57;;;;;;;23.10;7.95;;;;;;;-0.85;48.31;101355.56;1712355;83;21066;-63
2021/03/11 07:30:25;;;;;;;24.45;8.58;;;;;;;-0.86;48.12;101351.15;1691907;83;21437;-63
2021/03/11 07:33:01;;;;;;;21.45;8.93;;;;;;;-0.86;48.25;101354.33;1700482;83;21214;-63
2021/03/11 07:35:31;;;;;;;21.60;9.03;;;;;;;-0.85;48.13;101353.36;1687318;85;21864;-62
2021/03/11 07:38:02;;;;;;;16.62;8.08;;;;;;;-0.80;47.70;101353.91;1687322;85;21061;-62
2021/03/11 07:40:32;;;;;;;18.50;7.37;;;;;;;-0.78;47.33;101356.02;1687254;85;21805;-61
2021/03/11 07:43:03;;;;;;;21.35;8.10;;;;;;;-0.78;47.34;101366.78;1687477;85;21107;-63
2021/03/11 07:45:32;;;;;;;16.90;7.40;;;;;;;-0.76;47.19;101356.78;1687325;85;21161;-63
2021/03/11 07:48:02;;;;;;;19.48;6.95;;;;;;;-0.73;47.07;101361.96;1687564;85;21309;-62
2021/03/11 07:50:31;;;;;;;15.25;5.67;;;;;;;-0.66;47.11;101361.94;1687457;85;21383;-64
2021/03/11 07:52:59;;;;;;;13.90;6.00;;;;;;;-0.56;46.91;101357.69;1687221;85;21233;-64
2021/03/11 07:55:27;;;;;;;13.28;4.75;;;;;;;-0.48;46.24;101356.70;1687425;85;21320;-63
2021/03/11 07:57:57;;;;;;;17.15;5.65;;;;;;;-0.44;45.72;101351.97;1687369;85;21849;-62
2021/03/11 08:00:26;;;;;;;14.00;5.78;;;;;;;-0.42;45.50;101356.28;1687374;84;21427;-61
2021/03/11 08:03:11;;;;;;;12.95;4.90;;;;;;;-0.38;45.33;101355.11;1711232;83;21305;-63
2021/03/11 08:05:39;;;;;;;11.83;4.92;;;;;;;-0.33;44.97;101354.31;1717872;83;22076;-62
2021/03/11 08:08:21;;;;;;;8.35;3.80;;;;;;;-0.28;44.69;101347.27;1715963;83;21313;-63
2021/03/11 08:11:01;;;;;;;11.90;4.78;;;;;;;-0.25;44.63;101342.15;1712063;83;21848;-63
2021/03/11 08:13:37;;;;;;;10.45;3.92;;;;;;;-0.21;44.72;101340.97;1715875;83;21107;-63
2021/03/11 08:16:17;;;;;;;7.75;3.83;;;;;;;-0.12;44.52;101338.98;1715833;83;21315;-62
2021/03/11 08:18:46;;;;;;;10.58;4.03;;;;;;;-0.06;44.29;101342.60;1703119;83;21354;-63
2021/03/11 08:21:31;;;;;;;15.75;5.05;;;;;;;-0.01;44.20;101338.62;1692030;83;21881;-63
2021/03/11 08:23:58;;;;;;;13.95;4.20;;;;;;;0.04;44.19;101334.77;1716003;83;21784;-63
2021/03/11 08:26:41;;;;;;;11.28;4.55;;;;;;;0.07;43.94;101329.17;1696638;83;21356;-63
2021/03/11 08:29:26;;;;;;;9.53;4.53;;;;;;;0.10;43.76;101320.38;1685303;84;21233;-63
2021/03/11 08:31:53;;;;;;;10.05;4.50;;;;;;;0.10;43.80;101321.73;1685878;83;21074;-62
2021/03/11 08:34:38;;;;;;;10.78;4.50;;;;;;;0.16;43.70;101318.61;1695366;83;21770;-61
2021/03/11 08:37:22;;;;;;;15.28;4.65;;;;;;;0.22;43.39;101314.61;1686049;85;21348;-63
2021/03/11 08:39:49;;;;;;;15.40;4.75;;;;;;;0.21;43.06;101316.45;1716874;83;21862;-62
2021/03/11 08:42:47;;;;;;;16.85;6.60;;;;;;;0.21;43.28;101317.79;1718064;83;21263;-62
2021/03/11 08:45:37;;;;;;;11.95;5.00;;;;;;;0.31;43.22;101314.81;1718210;83;21345;-62
2021/03/11 08:48:21;;;;;;;9.78;4.95;;;;;;;0.46;42.86;101303.42;1717940;83;21327;-66
2021/03/11 08:50:52;;;;;;;11.12;5.17;;;;;;;0.57;42.65;101308.03;1687502;83;21058;-64
2021/03/11 08:53:44;;;;;;;11.25;5.42;;;;;;;0.62;42.33;101305.86;1684367;84;21109;-63
2021/03/11 08:56:24;;;;;;;18.02;6.30;;;;;;;0.62;42.41;101300.47;1644325;86;21236;-63
2021/03/11 08:59:06;;;;;;;10.60;5.10;;;;;;;0.62;42.26;101301.81;1693360;83;21082;-64
2021/03/11 09:01:53;;;;;;;14.20;5.22;;;;;;;0.66;42.23;101297.09;1702238;83;21864;-64
2021/03/11 09:04:27;;;;;;;12.45;4.58;;;;;;;0.74;42.09;101303.65;1682591;85;21068;-62
2021/03/11 09:07:00;;;;;;;8.80;4.58;;;;;;;0.80;41.85;101298.29;1683294;84;21339;-64
2021/03/11 09:09:45;;;;;;;15.53;4.55;;;;;;;0.83;41.76;101298.06;1658455;86;21149;-63
2021/03/11 09:12:36;;;;;;;12.80;5.22;;;;;;;0.83;41.85;101304.81;1678579;84;21069;-65
2021/03/11 09:15:10;;;;;;;28.07;11.15;;;;;;;0.84;41.79;101300.65;1664668;85;21090;-68
2021/03/11 09:17:39;;;;;;;16.57;6.70;;;;;;;0.91;41.81;101300.56;1652852;85;21391;-64
2021/03/11 09:20:15;;;;;;;21.20;10.72;;;;;;;1.01;41.64;101294.48;1676637;83;21722;-63
2021/03/11 09:22:49;;;;;;;17.48;6.92;;;;;;;1.06;41.62;101296.36;1695646;83;21054;-62
2021/03/11 09:25:20;;;;;;;16.62;6.58;;;;;;;1.09;41.54;101289.38;1684813;83;21316;-64
2021/03/11 09:27:56;;;;;;;20.00;5.83;;;;;;;1.14;41.64;101289.89;1688583;82;21072;-64
2021/03/11 09:30:39;;;;;;;19.85;5.33;;;;;;;1.21;41.45;101293.85;1713227;83;21127;-63
2021/03/11 09:33:18;;;;;;;14.75;5.08;;;;;;;1.27;41.41;101287.98;1702014;83;21118;-64
2021/03/11 09:35:48;;;;;;;17.95;7.15;;;;;;;1.36;41.19;101284.63;1686128;84;21109;-63
2021/03/11 09:38:26;;;;;;;17.30;5.70;;;;;;;1.45;41.10;101279.87;1684808;85;21959;-64
2021/03/11 09:40:57;;;;;;;13.38;5.53;;;;;;;1.55;40.85;101282.23;1682371;85;21883;-66
2021/03/11 09:43:33;;;;;;;14.05;5.75;;;;;;;1.66;40.59;101282.75;1682588;85;21228;-66
2021/03/11 09:46:14;;;;;;;;;;;;;;;1.71;40.23;101278.34;1667615;84;21805;-67
2021/03/11 09:48:48;;;;;;;16.23;6.87;;;;;;;1.76;40.09;101284.25;1668028;85;20335;-64
2021/03/11 09:51:25;;;;;;;12.95;4.92;;;;;;;1.84;39.91;101288.56;1673085;85;21065;-64
2021/03/11 09:54:04;;;;;;;12.28;4.40;;;;;;;1.93;39.83;101286.49;1688748;84;21108;-64
2021/03/11 09:56:43;;;;;;;14.33;4.92;;;;;;;2.00;39.52;101281.50;1703297;84;21410;-67
2021/03/11 09:59:14;;;;;;;10.53;4.10;;;;;;;2.06;39.29;101286.41;1692444;84;21093;-67
2021/03/11 10:01:43;;;;;;;10.40;4.30;;;;;;;2.11;39.06;101279.66;1703465;83;21311;-69
2021/03/11 10:04:23;;;;;;;11.00;3.98;;;;;;;2.16;38.76;101282.00;1682121;83;21118;-66
2021/03/11 10:07:02;;;;;;;11.60;4.50;;;;;;;2.15;38.85;101277.08;1685689;84;21368;-66
2021/03/11 10:09:38;;;;;;;10.82;3.90;;;;;;;2.25;38.91;101275.00;1685985;85;21253;-67
2021/03/11 10:12:09;;;;;;;11.18;3.45;;;;;;;2.32;38.75;101280.28;1686041;85;21070;-63
2021/03/11 10:14:38;;;;;;;6.92;3.45;;;;;;;2.33;38.50;101279.30;1686003;85;21118;-63
2021/03/11 10:17:06;;;;;;;7.55;3.65;;;;;;;2.34;38.49;101276.47;1686088;84;21309;-65
2021/03/11 10:19:40;;;;;;;12.20;3.60;;;;;;;2.45;38.36;101282.37;1685992;85;21270;-64
2021/03/11 10:22:17;;;;;;;9.50;3.50;;;;;;;2.54;38.28;101269.45;1688191;83;21169;-62
2021/03/11 10:24:50;;;;;;;9.23;3.72;;;;;;;2.66;37.81;101264.91;1652837;86;21240;-64
2021/03/11 10:27:28;;;;;;;6.97;3.60;;;;;;;2.69;37.73;101260.11;1671797;83;21169;-64
2021/03/11 10:30:20;;;;;;;9.30;3.67;;;;;;;2.74;37.52;101259.23;1680270;83;21332;-62
2021/03/11 10:33:03;;;;;;;6.58;3.35;;;;;;;2.82;37.44;101266.72;1646640;85;21774;-65
2021/03/11 10:35:37;;;;;;;11.57;4.12;;;;;;;2.91;37.04;101266.45;1626237;88;21106;-67
2021/03/11 10:38:19;;;;;;;7.53;3.87;;;;;;;2.97;37.07;101262.74;1626965;88;21929;-62
2021/03/11 10:40:48;;;;;;;13.20;4.30;;;;;;;3.06;36.91;101248.93;1628461;87;21127;-63
2021/03/11 10:43:25;;;;;;;7.10;3.25;;;;;;;3.11;36.44;101247.55;1627335;88;21342;-64
2021/03/11 10:45:53;;;;;;;12.37;3.58;;;;;;;3.12;36.49;101233.03;1624679;87;21299;-62
2021/03/11 10:48:20;;;;;;;7.53;3.70;;;;;;;3.16;36.40;101240.40;1627875;87;21324;-63
2021/03/11 10:50:53;;;;;;;7.12;3.37;;;;;;;3.18;36.26;101237.93;1629962;87;21281;-63
2021/03/11 10:53:38;;;;;;;9.03;3.72;;;;;;;3.24;36.27;101228.42;1630041;88;21315;-61
2021/03/11 10:56:07;;;;;;;7.42;3.35;;;;;;;3.33;36.16;101215.48;1630150;88;21145;-62
2021/03/11 10:58:34;;;;;;;9.58;3.72;;;;;;;3.40;36.13;101233.42;1630065;88;21054;-62
2021/03/11 11:01:25;;;;;;;9.20;4.25;;;;;;;3.47;35.97;101228.70;1630025;88;21173;-64
2021/03/11 11:03:57;;;;;;;7.30;3.45;;;;;;;3.55;35.83;101219.06;1630014;88;21129;-63
2021/03/11 11:06:24;;;;;;;11.18;3.83;;;;;;;3.62;35.82;101212.11;1630071;88;21090;-62
2021/03/11 11:08:51;;;;;;;10.43;4.97;;;;;;;3.70;35.71;101214.52;1610451;86;21340;-64
2021/03/11 11:11:19;;;;;;;9.13;4.22;;;;;;;3.81;35.53;101214.94;1599258;89;21087;-63
2021/03/11 11:13:48;;;;;;;12.53;4.30;;;;;;;3.88;35.27;101205.77;1599201;89;21110;-62
2021/03/11 11:16:16;;;;;;;9.20;3.83;;;;;;;4.00;35.30;101205.58;1629543;88;21317;-64
2021/03/11 11:18:44;;;;;;;10.75;3.72;;;;;;;4.12;35.23;101203.63;1630076;88;21411;-63
2021/03/11 11:21:12;;;;;;;17.17;3.67;;;;;;;4.24;34.89;101194.89;1644143;86;21092;-62
2021/03/11 11:23:45;;;;;;;9.58;3.40;;;;;;;4.29;34.61;101189.42;1648360;86;21766;-64
2021/03/11 11:26:19;;;;;;;7.45;3.30;;;;;;;4.31;34.47;101184.71;1650039;86;21216;-63
2021/03/11 11:28:49;;;;;;;6.28;3.67;;;;;;;4.38;34.30;101183.66;1610024;87;21065;-61
2021/03/11 11:31:16;;;;;;;8.63;4.17;;;;;;;4.48;34.19;101180.47;1613149;88;21142;-64
2021/03/11 11:33:44;;;;;;;10.30;3.47;;;;;;;4.57;34.04;101186.45;1627924;86;21804;-61
2021/03/11 11:36:11;;;;;;;8.00;3.17;;;;;;;4.65;33.92;101178.47;1684158;84;21782;-64
2021/03/11 11:38:39;;;;;;;10.90;3.70;;;;;;;4.71;34.05;101177.91;1685402;85;21325;-63